Flight Track Log - Related Links

Times and Time Zones

All times are in EDT time to prevent confusion due to time zone crossing. See the EJA982 flight status page for this flight to view local times or setup timezone preferences in your user account.

Time Position Orientation Groundspeed Altitude Reporting Facility
EDT Latitude Longitude Course Direction KTS MPH feet Rate Location/Type
Sun 11:41:58 AM 34.2333 -118.4167 80° East 222 255 4,100  Level Southern California TRACON
Sun 11:42:56 AM 34.2706 -118.4667 312° West 231 266 7,600 3,750 Climbing Los Angeles Center
Sun 11:43:58 AM 34.3308 -118.4403 20° North 245 282 11,600 2,710 Climbing Los Angeles Center
Sun 11:45:00 AM 34.3981 -118.3853 34° Northeast 288 331 13,200 1,415 Climbing Los Angeles Center
Sun 11:46:01 AM 34.4731 -118.3186 36° Northeast 329 379 14,500 1,268 Climbing Los Angeles Center
Sun 11:47:00 AM 34.6270 -117.9777 80° East  Level FlightAware Approximate
Sun 11:47:03 AM 34.5100 -118.1939 70° East 396 456 15,800  Level Los Angeles Center
Sun 11:48:04 AM 34.5372 -118.0336 78° East 425 489 17,300 1,268 Climbing Los Angeles Center
Sun 11:49:06 AM 34.5614 -117.8906 78° East 434 499 18,400 1,016 Climbing Los Angeles Center
Sun 11:50:08 AM 34.5858 -117.7433 79° East 445 512 19,400 1,113 Climbing Los Angeles Center
Sun 11:51:10 AM 34.6114 -117.5936 78° East 451 519 20,700 1,171 Climbing Los Angeles Center
Sun 11:52:11 AM 34.6400 -117.4117 79° East 457 526 21,800 927 Climbing Los Angeles Center
Sun 11:53:13 AM 34.6669 -117.2556 78° East 472 543 22,600 823 Climbing Los Angeles Center
Sun 11:54:15 AM 34.6933 -117.0942 79° East 487 560 23,500 927 Climbing Los Angeles Center
Sun 11:55:16 AM 34.7203 -116.9306 79° East 493 567 24,500 976 Climbing Los Angeles Center
Sun 11:56:18 AM 34.7469 -116.7633 79° East 503 579 25,500 1,016 Climbing Los Angeles Center
Sun 11:57:20 AM 34.7739 -116.5944 79° East 508 585 26,600 1,161 Climbing Los Angeles Center
Sun 11:58:22 AM 34.7950 -116.3850 83° East 524 603 27,900 1,122 Climbing Los Angeles Center
Sun 11:59:23 AM 34.7939 -116.2042 90° East 535 616 28,900 1,073 Climbing Los Angeles Center
Sun 12:00:25 PM 34.8150 -116.0247 82° East 539 620 30,100 1,355 Climbing Los Angeles Center
Sun 12:01:27 PM 34.8717 -115.8639 67° East 521 600 31,700 1,452 Climbing Los Angeles Center
Sun 12:02:29 PM 34.9278 -115.7042 67° East 519 597 33,100 1,512 Climbing Los Angeles Center
Sun 12:03:30 PM 34.9825 -115.5453 67° East 515 593 34,800 1,317 Climbing Los Angeles Center
Sun 12:04:32 PM 35.0375 -115.3828 68° East 515 593 35,800 1,161 Climbing Los Angeles Center
Sun 12:05:34 PM 35.0981 -115.2108 67° East 521 600 37,200 1,355 Climbing Los Angeles Center
Sun 12:06:36 PM 35.1653 -115.0111 68° East 534 615 38,600 878 Climbing Los Angeles Center
Sun 12:07:37 PM 35.2211 -114.8428 68° East 537 618 39,000 195 Climbing Los Angeles Center
Sun 12:08:39 PM 35.2817 -114.6644 67° East 573 659 39,000  Level Los Angeles Center
Sun 12:09:41 PM 35.3406 -114.4853 68° East 575 662 39,000  Level Los Angeles Center
Sun 12:10:43 PM 35.4006 -114.3011 68° East 577 664 39,000 581 Level Los Angeles Center
Sun 12:11:45 PM 35.4631 -114.1128 68° East 560 644 40,200 968 Climbing Los Angeles Center
Sun 12:12:47 PM 35.5197 -113.9428 68° East 542 624 41,000 387 Climbing Los Angeles Center
Sun 12:13:49 PM 35.5742 -113.7697 69° East 541 623 41,000  Level Los Angeles Center
Sun 12:14:51 PM 35.6325 -113.5936 68° East 551 634 41,000  Level Los Angeles Center
Sun 12:15:53 PM 35.6917 -113.4156 68° East 559 643 41,000  Level Los Angeles Center
Sun 12:16:54 PM 35.7608 -113.2011 68° East 558 642 41,000  Level Los Angeles Center
Sun 12:17:56 PM 35.8169 -113.0214 69° East 558 642 41,000  Level Los Angeles Center
Sun 12:18:58 PM 35.8717 -112.8417 69° East 557 641 41,000  Level Los Angeles Center
Sun 12:20:00 PM 35.9267 -112.6611 69° East 560 644 41,000  Level Los Angeles Center
Sun 12:21:02 PM 35.9789 -112.4903 69° East 551 634 41,000  Level Los Angeles Center
Sun 12:22:04 PM 36.0461 -112.2736 69° East 562 647 41,000  Level Los Angeles Center
Sun 12:23:06 PM 36.0908 -112.1183 70° East 573 659 41,000  Level Los Angeles Center
Sun 12:24:08 PM 36.1544 -111.9128 69° East 556 640 41,000  Level Los Angeles Center
Sun 12:25:10 PM 36.2092 -111.7358 69° East 551 634 41,000  Level Los Angeles Center
Sun 12:26:00 PM 36.2489 -111.5967 70° East 558 642 41,000  Level Denver Center
Sun 12:27:02 PM 36.3039 -111.4169 69° East 559 643 41,000 -387 Level Denver Center
Sun 12:28:04 PM 36.3678 -111.1983 70° East 561 646 40,200 -732 Descending Denver Center
Sun 12:29:05 PM 36.4219 -111.0142 70° East 565 650 39,500 -585 Descending Denver Center
Sun 12:30:07 PM 36.4772 -110.8294 70° East 567 652 39,000 -242 Descending Denver Center
Sun 12:31:09 PM 36.5306 -110.6464 70° East 568 654 39,000  Level Denver Center
Sun 12:32:11 PM 36.5822 -110.4667 70° East 563 648 39,000  Level Denver Center
Sun 12:33:12 PM 36.6336 -110.2856 70° East 562 647 39,000  Level Denver Center
Sun 12:34:14 PM 36.6942 -110.0717 70° East 560 644 39,000  Level Denver Center
Sun 12:35:16 PM 36.7439 -109.8964 70° East 560 644 39,000  Level Denver Center
Sun 12:36:17 PM 36.8011 -109.6931 71° East 559 643 39,000  Level Denver Center
Sun 12:37:19 PM 36.8500 -109.5167 71° East 559 643 39,000  Level Denver Center
Sun 12:38:21 PM 36.8981 -109.3403 71° East 559 643 39,000  Level Denver Center
Sun 12:39:22 PM 36.9556 -109.1356 71° East 559 643 39,000  Level Denver Center
Sun 12:40:24 PM 37.0028 -108.9575 72° East 559 643 39,000  Level Denver Center
Sun 12:41:26 PM 37.0592 -108.7494 71° East 560 644 39,000  Level Denver Center
Sun 12:42:27 PM 37.1064 -108.5717 72° East 560 644 39,000  Level Denver Center
Sun 12:43:29 PM 37.1539 -108.3936 71° East 560 644 39,000  Level Denver Center
Sun 12:44:31 PM 37.2097 -108.1881 71° East 558 642 39,000  Level Denver Center
Sun 12:45:32 PM 37.2564 -108.0092 72° East 559 643 39,000  Level Denver Center
Sun 12:46:34 PM 37.3111 -107.7975 72° East 567 652 39,000  Level Denver Center
Sun 12:47:36 PM 37.3581 -107.6178 72° East 567 652 39,000  Level Denver Center
Sun 12:48:38 PM 37.4125 -107.4058 72° East 569 655 39,000  Level Denver Center
Sun 12:49:40 PM 37.4586 -107.2233 72° East 570 656 39,000  Level Denver Center
Sun 12:50:41 PM 37.5058 -107.0383 72° East 575 662 39,000  Level Denver Center
Sun 12:51:43 PM 37.5592 -106.8253 72° East 574 661 39,000  Level Denver Center
Sun 12:52:45 PM 37.6047 -106.6408 73° East 574 661 39,000  Level Denver Center
Sun 12:53:47 PM 37.6592 -106.4256 72° East 575 662 39,000  Level Denver Center
Sun 12:54:49 PM 37.7042 -106.2406 73° East 576 663 39,000  Level Denver Center
Sun 12:55:50 PM 37.7528 -106.0258 74° East 576 663 39,000  Level Denver Center
Sun 12:56:52 PM 37.7994 -105.8319 73° East 576 663 39,000  Level Denver Center
Sun 12:57:54 PM 37.8481 -105.6383 72° East 576 663 39,000  Level Denver Center
Sun 12:58:56 PM 37.8947 -105.4428 73° East 577 664 39,000  Level Denver Center
Sun 12:59:58 PM 37.9397 -105.2475 74° East 577 664 39,000  Level Denver Center
Sun 01:01:00 PM 37.9869 -105.0500 73° East 578 665 39,000  Level Denver Center
Sun 01:02:01 PM 38.0322 -104.8522 74° East 582 670 39,000  Level Denver Center
Sun 01:03:03 PM 38.0869 -104.6136 74° East 582 670 39,000  Level Denver Center
Sun 01:04:05 PM 38.1325 -104.4136 74° East 584 672 39,000  Level Denver Center
Sun 01:05:07 PM 38.1769 -104.2125 74° East 584 672 39,000  Level Denver Center
Sun 01:06:09 PM 38.2219 -104.0111 74° East 589 678 39,000  Level Denver Center
Sun 01:07:11 PM 38.2661 -103.8103 74° East 589 678 39,000  Level Denver Center
Sun 01:08:12 PM 38.3108 -103.6069 74° East 590 679 39,000  Level Denver Center
Sun 01:09:14 PM 38.3572 -103.3942 74° East 594 684 39,000  Level Denver Center
Sun 01:10:16 PM 38.4069 -103.1650 74° East 596 686 39,000  Level Denver Center
Sun 01:11:18 PM 38.4475 -102.9689 75° East 597 687 39,000  Level Denver Center
Sun 01:12:20 PM 38.4956 -102.7392 75° East 598 688 39,000  Level Denver Center
Sun 01:13:21 PM 38.5381 -102.5406 75° East 601 692 39,000  Level Denver Center
Sun 01:14:23 PM 38.5778 -102.3461 75° East 595 685 39,000  Level Denver Center
Sun 01:15:25 PM 38.6225 -102.1258 75° East 576 663 39,000  Level Denver Center
Sun 01:16:27 PM 38.6597 -101.9417 75° East 561 646 39,000  Level Denver Center
Sun 01:17:28 PM 38.7033 -101.7244 76° East 561 646 39,000  Level Denver Center
Sun 01:18:30 PM 38.7408 -101.5403 75° East 559 643 39,000  Level Denver Center
Sun 01:19:32 PM 38.7769 -101.3528 76° East 562 647 39,000  Level Denver Center
Sun 01:20:34 PM 38.8211 -101.1317 76° East 567 652 39,000  Level Denver Center
Sun 01:21:35 PM 38.8572 -100.9411 76° East 570 656 39,000  Level Denver Center
Sun 01:22:37 PM 38.9000 -100.7197 76° East 574 661 39,000  Level Denver Center
Sun 01:23:39 PM 38.9361 -100.5267 76° East 574 661 39,000  Level Denver Center
Sun 01:24:41 PM 38.9775 -100.3031 77° East 576 663 39,000  Level Denver Center
Sun 01:25:42 PM 39.0108 -100.1222 77° East 576 663 39,000  Level Denver Center
Sun 01:26:44 PM 39.0489 -99.9158 77° East 580 667 39,000  Level Denver Center
Sun 01:27:46 PM 39.0892 -99.6908 77° East 580 667 39,000  Level Denver Center
Sun 01:28:48 PM 39.1242 -99.4956 77° East 585 673 39,000  Level Denver Center
Sun 01:29:49 PM 39.1650 -99.2689 77° East 584 672 39,000  Level Denver Center
Sun 01:30:51 PM 39.2019 -99.0553 77° East 584 672 39,000  Level Denver Center
Sun 01:31:53 PM 39.2367 -98.8556 77° East 582 670 39,000  Level Denver Center
Sun 01:32:54 PM 39.2722 -98.6528 77° East 582 670 39,000  Level Denver Center
Sun 01:33:56 PM 39.3058 -98.4494 78° East 580 667 39,000  Level Denver Center
Sun 01:34:58 PM 39.3403 -98.2464 78° East 580 667 39,000  Level Denver Center
Sun 01:36:20 PM 39.3861 -97.9708 78° East 574 661 39,000  Level Kansas City Center
Sun 01:37:24 PM 39.4192 -97.7642 78° East 574 661 39,000  Level Kansas City Center
Sun 01:38:25 PM 39.4522 -97.5653 78° East 571 657 39,000  Level Kansas City Center
Sun 01:39:27 PM 39.4906 -97.3333 78° East 566 651 39,000  Level Kansas City Center
Sun 01:40:28 PM 39.5153 -97.1658 79° East 566 651 39,000  Level Kansas City Center
Sun 01:41:32 PM 39.5539 -96.9264 78° East 566 651 39,000 288 Level Kansas City Center
Sun 01:42:33 PM 39.5822 -96.7331 79° East 568 654 39,600 829 Climbing Kansas City Center
Sun 01:43:35 PM 39.5911 -96.5369 87° East 546 628 40,700 683 Climbing Kansas City Center
Sun 01:44:36 PM 39.6003 -96.3408 86° East 546 628 41,000 144 Climbing Kansas City Center
Sun 01:45:40 PM 39.6117 -96.1406 86° East 553 636 41,000  Level Kansas City Center
Sun 01:46:42 PM 39.6256 -95.9006 86° East 554 638 41,000  Level Kansas City Center
Sun 01:47:45 PM 39.6358 -95.7028 86° East 550 633 41,000  Level Kansas City Center
Sun 01:48:45 PM 39.6475 -95.5033 86° East 550 633 41,000  Level Kansas City Center
Sun 01:49:46 PM 39.6603 -95.3044 85° East 550 633 41,000  Level Kansas City Center
Sun 01:50:50 PM 39.6717 -95.1078 86° East 545 627 41,000  Level Kansas City Center
Sun 01:51:51 PM 39.6872 -94.9106 84° East 545 627 41,000  Level Kansas City Center
Sun 01:52:55 PM 39.7058 -94.7131 83° East 546 628 41,000  Level Kansas City Center
Sun 01:53:56 PM 39.7283 -94.4775 83° East 546 628 41,000  Level Kansas City Center
Sun 01:54:58 PM 39.7631 -94.2842 77° East 549 632 41,000  Level Kansas City Center
Sun 01:55:58 PM 39.8100 -94.0819 73° East 550 633 41,000  Level Kansas City Center
Sun 01:57:02 PM 39.8494 -93.8944 75° East 554 638 41,000  Level Kansas City Center
Sun 01:58:04 PM 39.8908 -93.7069 74° East 550 633 41,000  Level Kansas City Center
Sun 01:59:05 PM 39.9336 -93.5183 73° East 548 631 41,000  Level Kansas City Center
Sun 02:00:09 PM 39.9736 -93.3242 75° East 552 635 41,000  Level Kansas City Center
Sun 02:01:10 PM 40.0261 -93.0983 73° East 552 635 41,000  Level Kansas City Center
Sun 02:02:13 PM 40.0672 -92.9069 74° East 551 634 41,000  Level Kansas City Center
Sun 02:03:14 PM 40.1081 -92.7147 74° East 551 634 41,000  Level Kansas City Center
Sun 02:04:15 PM 40.1478 -92.5225 75° East 550 633 41,000  Level Kansas City Center
Sun 02:05:19 PM 40.1933 -92.3069 74° East 555 639 41,000  Level Kansas City Center
Sun 02:06:19 PM 40.2331 -92.1156 75° East 558 642 41,000  Level Kansas City Center
Sun 02:07:23 PM 40.2719 -91.9208 75° East 558 642 41,000  Level Kansas City Center
Sun 02:08:24 PM 40.3106 -91.7289 75° East 557 641 41,000  Level Kansas City Center
Sun 02:09:26 PM 40.3556 -91.4964 76° East 556 640 41,000  Level Kansas City Center
Sun 02:10:28 PM 40.3947 -91.3003 75° East 557 641 41,000  Level Kansas City Center
Sun 02:11:32 PM 40.4303 -91.1200 75° East 557 641 41,000  Level Kansas City Center
Sun 02:12:33 PM 40.4758 -90.8844 76° East 557 641 41,000  Level Kansas City Center
Sun 02:13:23 PM 40.5069 -90.7256 76° East 557 641 41,000  Level Chicago Center
Sun 02:14:25 PM 40.5436 -90.5281 76° East 557 641 41,000  Level Chicago Center
Sun 02:15:26 PM 40.5806 -90.3292 76° East 559 643 41,000  Level Chicago Center
Sun 02:16:28 PM 40.6225 -90.1056 76° East 560 644 41,000  Level Chicago Center
Sun 02:17:30 PM 40.6594 -89.9061 76° East 560 644 41,000  Level Chicago Center
Sun 02:18:31 PM 40.6908 -89.7039 78° East 561 646 41,000  Level Chicago Center
Sun 02:19:33 PM 40.7197 -89.4978 79° East 574 661 41,000  Level Chicago Center
Sun 02:20:35 PM 40.7475 -89.2933 80° East 574 661 41,000  Level Chicago Center
Sun 02:21:36 PM 40.7750 -89.0861 80° East 573 659 41,000  Level Chicago Center
Sun 02:22:38 PM 40.8072 -88.8389 80° East 572 658 41,000  Level Chicago Center
Sun 02:23:39 PM 40.8411 -88.6403 77° East 567 652 41,000  Level Chicago Center
Sun 02:24:41 PM 40.8936 -88.4428 71° East 568 654 41,000  Level Chicago Center
Sun 02:25:43 PM 40.9433 -88.2458 71° East 570 656 41,000  Level Chicago Center
Sun 02:26:44 PM 40.9939 -88.0472 71° East 575 662 41,000  Level Chicago Center
Sun 02:27:46 PM 41.0542 -87.8117 71° East 571 657 41,000  Level Chicago Center
Sun 02:28:48 PM 41.1033 -87.6142 72° East 570 656 41,000  Level Chicago Center
Sun 02:29:50 PM 41.1531 -87.4161 72° East 569 655 41,000  Level Chicago Center
Sun 02:30:51 PM 41.2014 -87.2189 72° East 569 655 41,000  Level Chicago Center
Sun 02:31:53 PM 41.2506 -87.0200 72° East 570 656 41,000  Level Chicago Center
Sun 02:32:55 PM 41.3078 -86.7811 72° East 568 654 41,000  Level Chicago Center
Sun 02:33:57 PM 41.3492 -86.6072 72° East 567 652 41,000  Level Chicago Center
Sun 02:34:58 PM 41.3972 -86.4056 72° East 569 655 41,000  Level Chicago Center
Sun 02:36:00 PM 41.4533 -86.1642 73° East 569 655 41,000  Level Chicago Center
Sun 02:37:02 PM 41.4994 -85.9636 73° East 567 652 41,000  Level Chicago Center
Sun 02:38:04 PM 41.5458 -85.7631 73° East 567 652 41,000  Level Chicago Center
Sun 02:39:06 PM 41.5892 -85.5722 73° East 566 651 41,000  Level Chicago Center
Sun 02:40:08 PM 41.6339 -85.3717 73° East 566 651 41,000  Level Chicago Center
Sun 02:41:09 PM 41.6881 -85.1344 73° East 582 670 41,000  Level Chicago Center
Sun 02:42:11 PM 41.7322 -84.9394 73° East 554 638 41,000  Level Chicago Center
Sun 02:43:13 PM 41.7753 -84.7397 74° East 559 643 41,000  Level Chicago Center
Sun 02:44:15 PM 41.8186 -84.5411 74° East 559 643 41,000  Level Chicago Center
Sun 02:45:17 PM 41.8619 -84.3394 74° East 560 644 41,000  Level Chicago Center
Sun 02:46:19 PM 41.9139 -84.0986 74° East 563 648 41,000  Level Chicago Center
Sun 02:47:21 PM 41.9581 -83.8914 74° East 563 648 41,000  Level Chicago Center
Sun 02:48:29 PM 42.0028 -83.6758 74° East 563 648 41,000  Level Cleveland Center
Sun 02:49:30 PM 42.0439 -83.4611 75° East 563 648 41,000  Level Cleveland Center
Sun 02:50:32 PM 42.0581 -83.2464 85° East 569 655 41,000  Level Cleveland Center
Sun 02:51:34 PM 42.0686 -83.0167 86° East 569 655 41,000  Level Cleveland Center
Sun 02:52:36 PM 42.0800 -82.8042 86° East 570 656 41,000  Level Cleveland Center
Sun 02:53:38 PM 42.0869 -82.5925 87° East 570 656 41,000  Level Cleveland Center
Sun 02:54:40 PM 42.0978 -82.3789 86° East 571 657 41,000  Level Cleveland Center
Sun 02:55:42 PM 42.1064 -82.1650 87° East 574 661 41,000  Level Cleveland Center
Sun 02:56:44 PM 42.1167 -81.9111 87° East 574 661 41,000  Level Cleveland Center
Sun 02:57:45 PM 42.1247 -81.6944 87° East 574 661 41,000  Level Cleveland Center
Sun 02:58:47 PM 42.1311 -81.4886 88° East 550 633 41,000  Level Cleveland Center
Sun 02:59:49 PM 42.1383 -81.2817 87° East 545 627 41,000  Level Cleveland Center
Sun 03:00:51 PM 42.1456 -81.0692 87° East 556 640 41,000  Level Cleveland Center
Sun 03:01:53 PM 42.1511 -80.8581 88° East 556 640 41,000  Level Cleveland Center
Sun 03:02:55 PM 42.1658 -80.6497 84° East 555 639 41,000  Level Cleveland Center
Sun 03:03:57 PM 42.1856 -80.4456 83° East 548 631 41,000  Level Cleveland Center
Sun 03:04:59 PM 42.2047 -80.2406 83° East 545 627 41,000  Level Cleveland Center
Sun 03:06:01 PM 42.2242 -79.9972 84° East 551 634 41,000  Level Cleveland Center
Sun 03:07:03 PM 42.2408 -79.8017 83° East 542 624 41,000  Level Cleveland Center
Sun 03:08:05 PM 42.2578 -79.6056 83° East 533 613 41,000  Level Cleveland Center
Sun 03:09:07 PM 42.2725 -79.4094 84° East 529 609 41,000  Level Cleveland Center
Sun 03:10:09 PM 42.2886 -79.2075 84° East 542 624 41,000  Level Cleveland Center
Sun 03:11:11 PM 42.3081 -78.9636 84° East 545 627 41,000  Level Cleveland Center
Sun 03:12:13 PM 42.3236 -78.7564 84° East 546 628 41,000  Level Cleveland Center
Sun 03:13:15 PM 42.3389 -78.5544 84° East 543 625 41,000  Level Cleveland Center
Sun 03:14:17 PM 42.3525 -78.3525 85° East 543 625 41,000  Level Cleveland Center
Sun 03:15:19 PM 42.3661 -78.1500 85° East 543 625 41,000  Level Cleveland Center
Sun 03:16:21 PM 42.3803 -77.9464 85° East 547 629 41,000  Level Cleveland Center
Sun 03:17:23 PM 42.3972 -77.7014 85° East 551 634 41,000  Level Cleveland Center
Sun 03:18:25 PM 42.4089 -77.4967 86° East 553 636 41,000  Level Cleveland Center
Sun 03:19:27 PM 42.4233 -77.2914 84° East 554 638 41,000  Level Cleveland Center
Sun 03:20:29 PM 42.4344 -77.0828 86° East 558 642 41,000  Level Cleveland Center
Sun 03:21:31 PM 42.4547 -76.8769 82° East 558 642 41,000  Level Cleveland Center
Sun 03:22:33 PM 42.4808 -76.6275 82° East 558 642 41,000  Level Cleveland Center
Sun 03:23:35 PM 42.5042 -76.4175 81° East 562 647 41,000  Level Cleveland Center
Sun 03:24:37 PM 42.5236 -76.2261 82° East 563 648 41,000  Level Cleveland Center
Sun 03:25:39 PM 42.5497 -75.9731 82° East 564 649 41,000 -629 Level Cleveland Center
Sun 03:26:41 PM 42.5697 -75.7647 83° East 563 648 39,700 -2,516 Descending Cleveland Center
Sun 03:27:43 PM 42.5906 -75.5664 82° East 541 623 35,800 -4,016 Descending Cleveland Center
Sun 03:28:45 PM 42.6108 -75.3553 82° East 564 649 31,400 -2,661 Descending Cleveland Center
Sun 03:29:47 PM 42.6317 -75.1372 83° East 584 672 30,300 -1,029 Descending Cleveland Center
Sun 03:31:05 PM 42.6592 -74.8308 83° East 591 680 29,000 -565 Descending Boston Center
Sun 03:32:05 PM 42.6778 -74.6169 83° East 579 666 29,000  Level Boston Center
Sun 03:33:06 PM 42.6975 -74.4008 83° East 579 666 29,000  Level Boston Center
Sun 03:34:09 PM 42.7147 -74.1872 84° East 578 665 29,000  Level Boston Center
Sun 03:35:10 PM 42.7361 -73.9531 83° East 584 672 29,000 -298 Level Boston Center
Sun 03:36:10 PM 42.7403 -73.7317 88° East 585 673 28,400 -1,388 Descending Boston Center
Sun 03:37:11 PM 42.7167 -73.5203 99° East 565 650 26,200 -2,213 Descending Boston Center
Sun 03:38:12 PM 42.6936 -73.3061 98° East 565 650 23,900 -2,177 Descending Boston Center
Sun 03:39:15 PM 42.6711 -73.1014 98° East 547 629 21,700 -2,226 Descending Boston Center
Sun 03:40:16 PM 42.6472 -72.8989 99° East 518 596 19,300 -1,835 Descending Boston Center
Sun 03:41:16 PM 42.6272 -72.7225 99° East 486 559 18,000 -793 Descending Boston Center
Sun 03:42:17 PM 42.6064 -72.5483 99° East 467 537 17,700 -1,210 Descending Boston Center
Sun 03:43:20 PM 42.5858 -72.3867 100° East 422 486 15,500 -2,195 Descending Boston Center
Sun 03:44:20 PM 42.5658 -72.2244 99° East 384 442 13,200 -2,033 Descending Boston Center
Sun 03:45:21 PM 42.5506 -72.0933 99° East 358 412 11,400 -1,742 Descending Boston Center
Sun 03:46:24 PM 42.5383 -71.9711 98° East 333 383 9,600 -1,742 Descending Boston Center
Sun 03:47:25 PM 42.5264 -71.8475 97° East 311 358 7,800 -1,636 Descending Boston Center
Sun 03:48:25 PM 42.5169 -71.7372 97° East 299 344 6,300 -878 Descending Boston Center
Sun 03:49:28 PM 42.5333 -71.6364 78° East 280 322 6,000 -532 Descending Boston Center
Sun 03:50:29 PM 42.5506 -71.5403 76° East 246 283 5,200 -934 Descending Boston Center
Sun 03:51:30 PM 42.5664 -71.4575 75° East 231 266 4,100 -1,073 Descending Boston Center
Sun 03:52:32 PM 42.5575 -71.3728 98° East 239 275 3,000 -1,024 Descending Boston Center
Sun 03:53:33 PM 42.5431 -71.2833 102° East 231 266 2,000 -541 Descending Boston Center
Sun 03:54:34 PM 42.5250 -71.2100 108° East 211 243 1,900 -148 Descending Boston Center
Sun 03:55:35 PM 42.4806 -71.2053 176° South 161 185 1,700 -590 Descending Boston Center
Sun 03:56:36 PM 42.4675 -71.2456 246° West 130 150 700 -624 Descending Boston Center
Sun 03:57:40 PM 42.4714 -71.2836 278° West 121 139 400 -281 Descending Boston Center
Sun 03:59:00 PM 42.4667 -71.2833 90° East  Level FlightAware Approximate

Login

Don't have an account? Register now (free) for customized features, flight alerts, and more!